Time;durP1;ratioP1;P1;durP2;ratioP2;P2;SDS_P1;SDS_P2;PMS_P1;PMS_P2;Temp;Humidity;BMP_temperature;BMP_pressure;BME280_temperature;BME280_humidity;BME280_pressure;Samples;Min_cycle;Max_cycle;Signal;HPM_P1;HPM_P2
2023/01/02 05:08:54;;;;;;;2.73;1.50;;;;;;;19.99;62.11;96408.28;20816879;23;20232;-57
2023/01/02 05:18:52;;;;;;;2.10;1.60;;;;;;;19.99;61.48;96409.09;20149985;29;20251;-57
2023/01/02 05:28:53;;;;;;;2.17;1.50;;;;;;;20.00;61.77;96412.59;20148729;29;20216;-57
2023/01/02 05:38:51;;;;;;;1.50;1.40;;;;;;;19.99;61.73;96408.28;20148176;29;20507;-55
2023/01/02 05:48:51;;;;;;;2.07;1.50;;;;;;;19.96;62.43;96411.59;20153690;29;20217;-64
2023/01/02 05:58:50;;;;;;;2.27;1.30;;;;;;;19.94;62.16;96375.84;20145989;29;20221;-57
2023/01/02 06:08:49;;;;;;;2.10;1.33;;;;;;;19.95;61.28;96377.47;20171011;29;20267;-56
2023/01/02 06:18:50;;;;;;;6.23;1.97;;;;;;;19.13;51.40;96404.28;20160731;29;20227;-50
2023/01/02 06:28:52;;;;;;;4.20;1.77;;;;;;;18.43;51.21;96423.06;20143743;29;20229;-55
2023/01/02 06:38:52;;;;;;;9.13;2.40;;;;;;;19.33;51.02;96428.34;20158837;29;20504;-57
2023/01/02 06:48:52;;;;;;;6.07;1.90;;;;;;;19.56;52.15;96442.91;20142639;29;20212;-56
2023/01/02 06:58:50;;;;;;;7.33;1.60;;;;;;;19.65;52.16;96443.03;20157393;29;20212;-56
2023/01/02 07:08:49;;;;;;;6.70;1.93;;;;;;;19.68;54.39;96459.50;20157113;29;20232;-57
2023/01/02 07:18:52;;;;;;;4.17;1.70;;;;;;;19.72;55.47;96473.28;20157433;29;20217;-57
2023/01/02 07:28:51;;;;;;;5.47;1.90;;;;;;;19.71;56.75;96479.78;20139260;29;20264;-61
2023/01/02 07:38:51;;;;;;;8.10;2.27;;;;;;;19.79;56.89;96488.03;20097056;29;20221;-58
2023/01/02 07:48:53;;;;;;;5.97;2.13;;;;;;;19.81;57.09;96498.59;20076338;29;20262;-60
2023/01/02 07:58:51;;;;;;;2.20;1.30;;;;;;;19.80;58.31;96503.19;20075835;29;20224;-60
2023/01/02 08:08:51;;;;;;;3.97;1.87;;;;;;;19.81;58.09;96498.59;20073778;29;20455;-60
2023/01/02 08:18:53;;;;;;;8.53;2.10;;;;;;;19.80;58.47;96527.59;20074183;29;20225;-59
2023/01/02 08:28:52;;;;;;;9.70;1.77;;;;;;;19.82;58.90;96527.28;20073597;29;20264;-57
2023/01/02 08:38:53;;;;;;;4.17;2.03;;;;;;;19.83;58.99;96528.88;20073438;29;20385;-58
2023/01/02 08:48:52;;;;;;;7.10;1.90;;;;;;;19.84;58.99;96530.50;20101126;29;20229;-59
2023/01/02 08:58:52;;;;;;;4.10;1.53;;;;;;;19.85;59.40;96543.75;20149192;29;20237;-58
2023/01/02 09:08:52;;;;;;;3.60;2.03;;;;;;;19.88;59.33;96540.44;20149108;29;20232;-59
2023/01/02 09:18:50;;;;;;;4.10;1.87;;;;;;;19.98;59.29;96553.03;20148188;29;20247;-58
2023/01/02 09:28:50;;;;;;;4.47;1.77;;;;;;;20.03;59.62;96578.16;20162356;29;20240;-58
2023/01/02 09:38:52;;;;;;;5.47;1.90;;;;;;;19.99;59.90;96581.75;20163084;29;20220;-58
2023/01/02 09:48:51;;;;;;;2.77;1.53;;;;;;;19.96;60.33;96590.47;20162148;29;20285;-59
2023/01/02 09:58:53;;;;;;;3.00;1.70;;;;;;;19.97;60.40;96595.59;20145364;29;20259;-58
2023/01/02 10:09:03;;;;;;;4.10;1.80;;;;;;;20.05;60.40;96623.94;20160690;29;20229;-59
2023/01/02 10:19:07;;;;;;;2.97;1.83;;;;;;;20.10;60.07;96629.28;20160340;29;20271;-59
2023/01/02 10:29:13;;;;;;;2.17;1.60;;;;;;;20.15;59.83;96629.19;20159567;29;20234;-58
2023/01/02 10:39:14;;;;;;;4.07;1.70;;;;;;;20.20;60.80;96612.88;20158369;29;20220;-60
2023/01/02 10:49:15;;;;;;;2.60;1.57;;;;;;;20.31;60.43;96622.47;20158145;29;20229;-59
2023/01/02 10:59:21;;;;;;;6.20;2.50;;;;;;;20.44;60.62;96623.63;20156887;29;20283;-58
2023/01/02 11:09:23;;;;;;;5.13;1.70;;;;;;;20.47;60.57;96614.91;20139705;29;20250;-59
2023/01/02 11:19:23;;;;;;;3.27;1.40;;;;;;;20.60;59.75;96608.69;20156187;29;20231;-58
2023/01/02 11:29:31;;;;;;;4.87;1.60;;;;;;;20.62;60.58;96611.91;20138729;29;20247;-58
2023/01/02 11:39:32;;;;;;;90.37;30.50;;;;;;;20.71;62.97;96601.16;20154502;29;20212;-57
2023/01/02 11:49:39;;;;;;;107.67;34.87;;;;;;;20.59;66.06;96613.31;20136388;29;20527;-56
2023/01/02 11:59:40;;;;;;;106.60;33.37;;;;;;;20.53;67.44;96611.81;20138099;29;20224;-59
2023/01/02 12:09:50;;;;;;;95.60;32.47;;;;;;;20.49;67.24;96613.50;20151805;29;20236;-59
2023/01/02 12:20:07;;;;;;;92.03;28.93;;;;;;;20.45;68.02;96606.25;20151413;29;20572;-58
2023/01/02 12:30:12;;;;;;;91.17;27.80;;;;;;;20.41;68.03;96613.38;20134113;29;20228;-61
2023/01/02 12:40:29;;;;;;;80.27;26.93;;;;;;;20.39;67.52;96616.41;20150717;29;20235;-55
2023/01/02 12:50:41;;;;;;;76.70;26.33;;;;;;;20.40;67.63;96622.59;20132637;29;20232;-58
2023/01/02 13:00:58;;;;;;;72.63;24.80;;;;;;;20.38;67.98;96631.03;20148516;29;20221;-58
2023/01/02 13:11:01;;;;;;;75.43;24.07;;;;;;;20.35;68.00;96630.81;20148576;29;20397;-58
2023/01/02 13:21:08;;;;;;;79.70;25.07;;;;;;;20.35;66.79;96649.81;20148245;29;20430;-58
2023/01/02 13:31:11;;;;;;;69.37;22.97;;;;;;;20.32;67.46;96650.41;20131493;29;20240;-59
2023/01/02 13:42:56;;;;;;;67.43;21.57;;;;;;;20.30;67.58;96655.31;20147786;29;20264;-58
2023/01/02 13:51:59;;;;;;;59.33;20.40;;;;;;;20.31;66.91;96652.31;20130551;29;20259;-57
2023/01/02 14:02:16;;;;;;;58.63;19.80;;;;;;;20.31;67.08;96665.06;20146761;29;20228;-58
2023/01/02 14:12:16;;;;;;;52.40;19.37;;;;;;;20.30;67.31;96685.16;20156242;29;20224;-56
2023/01/02 14:22:16;;;;;;;49.37;18.30;;;;;;;20.31;66.90;96694.88;20160710;29;20220;-57
2023/01/02 14:32:22;;;;;;;53.97;17.70;;;;;;;20.32;66.44;96726.34;20159350;29;20232;-57
2023/01/02 14:52:49;;;;;;;50.83;17.13;;;;;;;20.28;66.45;96761.38;20158625;29;20239;-57
2023/01/02 15:02:54;;;;;;;57.03;18.50;;;;;;;20.29;66.04;96792.00;20140704;29;20513;-57
2023/01/02 15:13:06;;;;;;;54.47;17.07;;;;;;;20.28;66.20;96790.38;20156526;29;20542;-57
2023/01/02 15:23:04;;;;;;;45.27;16.30;;;;;;;20.27;66.33;96816.72;20163868;29;20500;-57
2023/01/02 15:33:04;;;;;;;42.90;16.63;;;;;;;20.27;66.71;96824.84;20154462;29;20299;-57
2023/01/02 15:53:30;;;;;;;46.50;15.87;;;;;;;20.25;66.53;96831.59;20136165;29;20231;-58
2023/01/02 16:03:36;;;;;;;47.33;14.97;;;;;;;20.24;65.71;96833.53;20152478;29;20280;-56
2023/01/02 16:24:19;;;;;;;40.97;15.13;;;;;;;20.19;66.04;96844.44;20150840;29;20412;-56
2023/01/02 16:34:29;;;;;;;39.63;14.13;;;;;;;20.17;65.31;96852.06;20149913;29;20324;-56
2023/01/02 16:44:30;;;;;;;37.63;14.33;;;;;;;20.15;66.07;96867.78;20149789;29;20220;-56
2023/01/02 16:54:30;;;;;;;33.00;12.63;;;;;;;20.13;65.24;96899.00;20149047;29;20248;-56
2023/01/02 17:04:29;;;;;;;34.00;13.13;;;;;;;20.12;65.71;96903.59;20149206;29;20236;-57
2023/01/02 17:14:30;;;;;;;32.07;13.30;;;;;;;20.10;65.56;96913.94;20148081;29;20280;-56
2023/01/02 17:24:28;;;;;;;13.50;4.85;;;;;;;19.39;57.68;96938.97;20154097;29;20845;-55
2023/01/02 17:34:28;;;;;;;13.83;4.63;;;;;;;19.76;58.12;96959.25;20146359;29;20228;-57
2023/01/02 17:44:25;;;;;;;11.83;4.63;;;;;;;19.88;58.57;96978.66;20134986;29;20224;-55
2023/01/02 17:54:25;;;;;;;16.73;4.87;;;;;;;19.92;59.50;96985.97;20161017;29;20224;-56
2023/01/02 18:04:23;;;;;;;9.87;3.50;;;;;;;19.97;60.30;96994.03;20160284;29;20370;-54
2023/01/02 18:14:27;;;;;;;9.20;3.97;;;;;;;19.98;60.72;97020.06;20160059;29;20228;-55
2023/01/02 18:24:28;;;;;;;7.77;4.03;;;;;;;20.01;60.81;97033.03;20157577;29;20295;-57
2023/01/02 18:34:28;;;;;;;13.57;4.53;;;;;;;20.04;60.99;97046.03;20158779;29;20236;-56
2023/01/02 18:44:49;;;;;;;11.27;4.67;;;;;;;20.04;61.55;97056.88;20172313;29;20225;-57
2023/01/02 18:54:58;;;;;;;11.20;4.60;;;;;;;20.05;61.79;97079.38;20144511;29;20232;-59
2023/01/02 19:04:58;;;;;;;10.73;4.47;;;;;;;20.06;62.17;97092.63;20158041;29;20228;-59
2023/01/02 19:15:00;;;;;;;10.03;4.93;;;;;;;20.06;62.69;97098.06;20156496;29;20251;-61
2023/01/02 19:25:01;;;;;;;10.87;4.70;;;;;;;20.10;62.32;97101.00;20155596;29;20231;-57
2023/01/02 19:35:28;;;;;;;10.83;4.43;;;;;;;20.05;63.00;97125.47;20148972;29;20231;-62
2023/01/02 19:45:28;;;;;;;9.33;4.37;;;;;;;20.04;63.08;97149.03;20148312;29;20232;-58
2023/01/02 19:55:30;;;;;;;9.23;4.17;;;;;;;20.06;62.72;97162.31;20158836;29;20228;-62
2023/01/02 20:05:30;;;;;;;8.13;4.10;;;;;;;20.06;62.72;97148.75;20143876;29;20270;-58
2023/01/02 20:15:30;;;;;;;13.03;4.43;;;;;;;20.05;63.50;97152.56;20128812;29;20441;-58
2023/01/02 20:25:28;;;;;;;11.23;4.10;;;;;;;20.05;63.65;97168.84;20150857;29;20240;-58
2023/01/02 20:35:28;;;;;;;9.17;4.10;;;;;;;20.03;63.51;97165.56;20133615;29;20250;-59
2023/01/02 20:45:26;;;;;;;10.13;3.90;;;;;;;19.99;63.17;97176.19;20149919;29;20221;-59
2023/01/02 20:55:25;;;;;;;8.27;3.90;;;;;;;19.97;63.31;97193.81;20149040;29;20260;-58
2023/01/02 21:05:25;;;;;;;8.10;3.93;;;;;;;19.95;63.34;97217.69;20148474;29;20235;-59
2023/01/02 21:15:44;;;;;;;9.07;3.83;;;;;;;19.92;63.08;97232.59;20151053;29;20228;-59
2023/01/02 21:25:44;;;;;;;6.80;3.73;;;;;;;19.91;63.81;97228.25;20192186;29;20257;-58
2023/01/02 21:35:45;;;;;;;7.10;3.67;;;;;;;19.91;63.34;97251.84;20196588;29;20303;-59
2023/01/02 21:45:43;;;;;;;6.87;3.60;;;;;;;19.89;63.68;97268.41;20173344;29;20224;-59
2023/01/02 21:55:42;;;;;;;7.73;3.67;;;;;;;19.88;63.41;97260.53;20173101;29;20229;-59
